sensor_id;sensor_type;location;lat;lon;timestamp;P1;durP1;ratioP1;P2;durP2;ratioP2
62010;SDS011;47967;51.756;10.174;2022-12-18T05:03:34;13.40;;;7.10;;
62010;SDS011;47967;51.756;10.174;2022-12-18T05:07:38;16.00;;;7.63;;
62010;SDS011;47967;51.756;10.174;2022-12-18T05:11:41;16.42;;;7.28;;
62010;SDS011;47967;51.756;10.174;2022-12-18T05:15:50;18.30;;;8.23;;
62010;SDS011;47967;51.756;10.174;2022-12-18T05:19:55;17.50;;;8.10;;
62010;SDS011;47967;51.756;10.174;2022-12-18T05:23:58;21.02;;;7.35;;
62010;SDS011;47967;51.756;10.174;2022-12-18T05:32:03;17.80;;;6.68;;
62010;SDS011;47967;51.756;10.174;2022-12-18T05:36:09;12.73;;;6.72;;
62010;SDS011;47967;51.756;10.174;2022-12-18T05:40:12;16.73;;;7.50;;
62010;SDS011;47967;51.756;10.174;2022-12-18T05:44:15;16.77;;;7.90;;
62010;SDS011;47967;51.756;10.174;2022-12-18T05:52:22;13.63;;;6.70;;
62010;SDS011;47967;51.756;10.174;2022-12-18T05:56:24;21.80;;;8.52;;
62010;SDS011;47967;51.756;10.174;2022-12-18T06:00:27;16.10;;;7.93;;
62010;SDS011;47967;51.756;10.174;2022-12-18T06:04:30;15.75;;;7.57;;
62010;SDS011;47967;51.756;10.174;2022-12-18T06:08:34;12.10;;;6.47;;
62010;SDS011;47967;51.756;10.174;2022-12-18T06:16:49;13.77;;;6.30;;
62010;SDS011;47967;51.756;10.174;2022-12-18T06:20:55;18.77;;;6.63;;
62010;SDS011;47967;51.756;10.174;2022-12-18T06:25:00;10.93;;;5.88;;
62010;SDS011;47967;51.756;10.174;2022-12-18T06:29:03;16.95;;;6.53;;
62010;SDS011;47967;51.756;10.174;2022-12-18T06:37:08;9.27;;;4.07;;
62010;SDS011;47967;51.756;10.174;2022-12-18T06:41:13;19.15;;;9.05;;
62010;SDS011;47967;51.756;10.174;2022-12-18T06:45:17;35.17;;;13.80;;
62010;SDS011;47967;51.756;10.174;2022-12-18T06:53:31;12.30;;;5.97;;
62010;SDS011;47967;51.756;10.174;2022-12-18T06:57:35;13.13;;;6.57;;
62010;SDS011;47967;51.756;10.174;2022-12-18T07:01:39;19.70;;;7.22;;
62010;SDS011;47967;51.756;10.174;2022-12-18T07:05:42;13.52;;;6.53;;
62010;SDS011;47967;51.756;10.174;2022-12-18T07:13:48;16.58;;;7.45;;
62010;SDS011;47967;51.756;10.174;2022-12-18T07:17:51;16.27;;;7.70;;
62010;SDS011;47967;51.756;10.174;2022-12-18T07:25:59;8.30;;;5.05;;
62010;SDS011;47967;51.756;10.174;2022-12-18T07:30:05;15.10;;;6.70;;
62010;SDS011;47967;51.756;10.174;2022-12-18T07:34:09;16.23;;;7.30;;
62010;SDS011;47967;51.756;10.174;2022-12-18T07:38:12;15.15;;;6.15;;
62010;SDS011;47967;51.756;10.174;2022-12-18T07:46:42;10.07;;;4.57;;
62010;SDS011;47967;51.756;10.174;2022-12-18T07:50:44;17.98;;;7.80;;
62010;SDS011;47967;51.756;10.174;2022-12-18T08:02:54;13.90;;;5.72;;
62010;SDS011;47967;51.756;10.174;2022-12-18T08:06:57;16.20;;;6.47;;
62010;SDS011;47967;51.756;10.174;2022-12-18T08:15:02;21.15;;;9.90;;
62010;SDS011;47967;51.756;10.174;2022-12-18T08:19:10;18.00;;;9.68;;
62010;SDS011;47967;51.756;10.174;2022-12-18T08:23:13;23.85;;;10.68;;
62010;SDS011;47967;51.756;10.174;2022-12-18T08:31:30;19.08;;;10.50;;
62010;SDS011;47967;51.756;10.174;2022-12-18T08:35:36;24.30;;;11.13;;
62010;SDS011;47967;51.756;10.174;2022-12-18T08:39:46;23.17;;;10.02;;
62010;SDS011;47967;51.756;10.174;2022-12-18T08:43:48;28.00;;;12.43;;
62010;SDS011;47967;51.756;10.174;2022-12-18T08:48:09;29.80;;;14.43;;
62010;SDS011;47967;51.756;10.174;2022-12-18T08:56:15;21.83;;;11.20;;
62010;SDS011;47967;51.756;10.174;2022-12-18T09:00:18;28.05;;;12.60;;
62010;SDS011;47967;51.756;10.174;2022-12-18T09:08:25;23.83;;;10.65;;
62010;SDS011;47967;51.756;10.174;2022-12-18T09:12:28;20.17;;;9.65;;
62010;SDS011;47967;51.756;10.174;2022-12-18T09:20:36;23.60;;;12.25;;
62010;SDS011;47967;51.756;10.174;2022-12-18T09:28:42;23.10;;;11.52;;
62010;SDS011;47967;51.756;10.174;2022-12-18T09:36:48;18.23;;;9.20;;
62010;SDS011;47967;51.756;10.174;2022-12-18T09:40:52;18.75;;;9.75;;
62010;SDS011;47967;51.756;10.174;2022-12-18T09:44:59;21.70;;;8.70;;
62010;SDS011;47967;51.756;10.174;2022-12-18T09:49:04;21.33;;;10.73;;
62010;SDS011;47967;51.756;10.174;2022-12-18T09:53:15;19.73;;;10.43;;
62010;SDS011;47967;51.756;10.174;2022-12-18T09:57:23;23.17;;;10.05;;
62010;SDS011;47967;51.756;10.174;2022-12-18T10:01:27;20.45;;;9.52;;
62010;SDS011;47967;51.756;10.174;2022-12-18T10:05:43;21.88;;;10.15;;
62010;SDS011;47967;51.756;10.174;2022-12-18T10:09:53;20.92;;;9.75;;
62010;SDS011;47967;51.756;10.174;2022-12-18T10:14:04;23.50;;;10.02;;
62010;SDS011;47967;51.756;10.174;2022-12-18T10:18:14;23.05;;;11.05;;
62010;SDS011;47967;51.756;10.174;2022-12-18T10:22:27;20.08;;;9.80;;
62010;SDS011;47967;51.756;10.174;2022-12-18T10:26:41;19.38;;;10.35;;
62010;SDS011;47967;51.756;10.174;2022-12-18T10:30:46;20.88;;;10.65;;
62010;SDS011;47967;51.756;10.174;2022-12-18T10:34:49;20.20;;;9.98;;
62010;SDS011;47967;51.756;10.174;2022-12-18T10:39:07;21.95;;;9.75;;
62010;SDS011;47967;51.756;10.174;2022-12-18T10:43:19;19.42;;;9.90;;
62010;SDS011;47967;51.756;10.174;2022-12-18T10:47:25;24.02;;;10.23;;
62010;SDS011;47967;51.756;10.174;2022-12-18T10:51:29;22.90;;;10.30;;
62010;SDS011;47967;51.756;10.174;2022-12-18T10:55:35;24.42;;;11.02;;
62010;SDS011;47967;51.756;10.174;2022-12-18T10:59:50;24.35;;;10.32;;
62010;SDS011;47967;51.756;10.174;2022-12-18T11:04:04;18.60;;;9.60;;
62010;SDS011;47967;51.756;10.174;2022-12-18T11:08:18;22.20;;;10.15;;
62010;SDS011;47967;51.756;10.174;2022-12-18T11:12:24;19.75;;;9.23;;
62010;SDS011;47967;51.756;10.174;2022-12-18T11:16:26;20.13;;;8.82;;
62010;SDS011;47967;51.756;10.174;2022-12-18T11:20:33;17.15;;;8.00;;
62010;SDS011;47967;51.756;10.174;2022-12-18T11:24:38;14.88;;;6.85;;
62010;SDS011;47967;51.756;10.174;2022-12-18T11:28:43;13.60;;;7.40;;
62010;SDS011;47967;51.756;10.174;2022-12-18T11:32:47;13.65;;;7.38;;
62010;SDS011;47967;51.756;10.174;2022-12-18T11:36:53;13.68;;;6.78;;
62010;SDS011;47967;51.756;10.174;2022-12-18T11:40:58;8.63;;;4.03;;
62010;SDS011;47967;51.756;10.174;2022-12-18T11:45:11;10.77;;;5.18;;
62010;SDS011;47967;51.756;10.174;2022-12-18T11:49:25;9.52;;;4.82;;
62010;SDS011;47967;51.756;10.174;2022-12-18T11:53:36;8.52;;;4.05;;
62010;SDS011;47967;51.756;10.174;2022-12-18T11:57:40;11.25;;;4.68;;
62010;SDS011;47967;51.756;10.174;2022-12-18T12:01:53;8.30;;;4.43;;
62010;SDS011;47967;51.756;10.174;2022-12-18T12:06:03;8.35;;;4.03;;
62010;SDS011;47967;51.756;10.174;2022-12-18T12:10:21;7.95;;;3.72;;
62010;SDS011;47967;51.756;10.174;2022-12-18T12:14:37;4.97;;;2.53;;
62010;SDS011;47967;51.756;10.174;2022-12-18T12:18:54;8.40;;;4.20;;
62010;SDS011;47967;51.756;10.174;2022-12-18T12:23:05;7.63;;;3.72;;
62010;SDS011;47967;51.756;10.174;2022-12-18T12:27:18;5.85;;;3.17;;
62010;SDS011;47967;51.756;10.174;2022-12-18T12:31:32;8.48;;;4.22;;
62010;SDS011;47967;51.756;10.174;2022-12-18T12:35:56;11.70;;;4.65;;
62010;SDS011;47967;51.756;10.174;2022-12-18T12:40:05;8.75;;;4.95;;
62010;SDS011;47967;51.756;10.174;2022-12-18T12:44:30;9.25;;;4.50;;
62010;SDS011;47967;51.756;10.174;2022-12-18T12:48:37;8.05;;;4.45;;
62010;SDS011;47967;51.756;10.174;2022-12-18T12:52:46;9.68;;;4.82;;
62010;SDS011;47967;51.756;10.174;2022-12-18T12:56:53;12.48;;;5.18;;
62010;SDS011;47967;51.756;10.174;2022-12-18T13:01:08;7.55;;;4.00;;
62010;SDS011;47967;51.756;10.174;2022-12-18T13:05:24;6.25;;;3.58;;
62010;SDS011;47967;51.756;10.174;2022-12-18T13:09:32;5.10;;;3.08;;
62010;SDS011;47967;51.756;10.174;2022-12-18T13:13:47;9.38;;;4.53;;
62010;SDS011;47967;51.756;10.174;2022-12-18T13:18:04;9.48;;;4.43;;
62010;SDS011;47967;51.756;10.174;2022-12-18T13:22:20;10.20;;;4.90;;
62010;SDS011;47967;51.756;10.174;2022-12-18T13:26:33;9.55;;;4.97;;
62010;SDS011;47967;51.756;10.174;2022-12-18T13:30:46;10.68;;;3.60;;
62010;SDS011;47967;51.756;10.174;2022-12-18T13:39:41;10.25;;;3.85;;
62010;SDS011;47967;51.756;10.174;2022-12-18T13:43:45;8.73;;;4.22;;
62010;SDS011;47967;51.756;10.174;2022-12-18T13:47:49;8.82;;;4.30;;
62010;SDS011;47967;51.756;10.174;2022-12-18T13:51:54;7.20;;;3.22;;
62010;SDS011;47967;51.756;10.174;2022-12-18T13:55:58;5.65;;;3.72;;
62010;SDS011;47967;51.756;10.174;2022-12-18T14:04:21;5.80;;;3.08;;
62010;SDS011;47967;51.756;10.174;2022-12-18T14:08:29;7.32;;;2.70;;
62010;SDS011;47967;51.756;10.174;2022-12-18T14:12:36;7.30;;;3.42;;
62010;SDS011;47967;51.756;10.174;2022-12-18T14:16:56;8.52;;;3.33;;
62010;SDS011;47967;51.756;10.174;2022-12-18T14:21:00;6.20;;;3.20;;
62010;SDS011;47967;51.756;10.174;2022-12-18T14:25:10;6.55;;;3.25;;
62010;SDS011;47967;51.756;10.174;2022-12-18T14:33:24;3.60;;;2.65;;
62010;SDS011;47967;51.756;10.174;2022-12-18T14:37:28;26.23;;;3.30;;
62010;SDS011;47967;51.756;10.174;2022-12-18T14:41:32;11.02;;;4.07;;
62010;SDS011;47967;51.756;10.174;2022-12-18T14:45:38;10.07;;;4.65;;
62010;SDS011;47967;51.756;10.174;2022-12-18T14:49:43;8.75;;;4.13;;
62010;SDS011;47967;51.756;10.174;2022-12-18T14:53:47;6.53;;;2.88;;
62010;SDS011;47967;51.756;10.174;2022-12-18T14:57:56;8.35;;;3.55;;
62010;SDS011;47967;51.756;10.174;2022-12-18T15:02:01;7.07;;;3.67;;
62010;SDS011;47967;51.756;10.174;2022-12-18T15:06:15;7.53;;;3.88;;
62010;SDS011;47967;51.756;10.174;2022-12-18T15:10:20;7.68;;;3.33;;
62010;SDS011;47967;51.756;10.174;2022-12-18T15:14:31;6.38;;;3.25;;
62010;SDS011;47967;51.756;10.174;2022-12-18T15:18:38;7.03;;;3.10;;
62010;SDS011;47967;51.756;10.174;2022-12-18T15:22:46;5.40;;;2.95;;
62010;SDS011;47967;51.756;10.174;2022-12-18T15:26:51;5.88;;;3.10;;
62010;SDS011;47967;51.756;10.174;2022-12-18T15:30:58;5.03;;;2.85;;
62010;SDS011;47967;51.756;10.174;2022-12-18T15:35:07;6.72;;;3.50;;
62010;SDS011;47967;51.756;10.174;2022-12-18T15:39:16;7.20;;;3.63;;
62010;SDS011;47967;51.756;10.174;2022-12-18T15:43:18;7.28;;;3.13;;
62010;SDS011;47967;51.756;10.174;2022-12-18T15:47:39;3.95;;;2.13;;
62010;SDS011;47967;51.756;10.174;2022-12-18T15:51:43;6.25;;;2.85;;
62010;SDS011;47967;51.756;10.174;2022-12-18T15:55:48;5.20;;;2.45;;
62010;SDS011;47967;51.756;10.174;2022-12-18T16:00:11;6.43;;;2.45;;
62010;SDS011;47967;51.756;10.174;2022-12-18T16:04:16;9.25;;;3.67;;
62010;SDS011;47967;51.756;10.174;2022-12-18T16:08:21;3.45;;;1.88;;
62010;SDS011;47967;51.756;10.174;2022-12-18T16:12:24;3.95;;;2.20;;
62010;SDS011;47967;51.756;10.174;2022-12-18T16:16:27;9.85;;;3.60;;
62010;SDS011;47967;51.756;10.174;2022-12-18T16:20:32;5.63;;;3.20;;
62010;SDS011;47967;51.756;10.174;2022-12-18T16:24:35;5.15;;;2.97;;
62010;SDS011;47967;51.756;10.174;2022-12-18T16:28:38;7.80;;;4.13;;
62010;SDS011;47967;51.756;10.174;2022-12-18T16:32:48;7.22;;;3.85;;
62010;SDS011;47967;51.756;10.174;2022-12-18T16:36:53;9.70;;;3.78;;
62010;SDS011;47967;51.756;10.174;2022-12-18T16:41:04;9.70;;;4.47;;
62010;SDS011;47967;51.756;10.174;2022-12-18T16:45:34;6.70;;;3.50;;
62010;SDS011;47967;51.756;10.174;2022-12-18T16:49:37;6.97;;;3.60;;
62010;SDS011;47967;51.756;10.174;2022-12-18T16:53:42;6.75;;;4.03;;
62010;SDS011;47967;51.756;10.174;2022-12-18T16:57:45;9.20;;;4.80;;
62010;SDS011;47967;51.756;10.174;2022-12-18T17:01:47;4.70;;;2.20;;
62010;SDS011;47967;51.756;10.174;2022-12-18T17:05:51;9.63;;;4.03;;
62010;SDS011;47967;51.756;10.174;2022-12-18T17:09:55;7.93;;;3.10;;
62010;SDS011;47967;51.756;10.174;2022-12-18T17:13:58;9.80;;;4.70;;
62010;SDS011;47967;51.756;10.174;2022-12-18T17:18:02;7.72;;;3.35;;
62010;SDS011;47967;51.756;10.174;2022-12-18T17:22:04;7.18;;;3.35;;
62010;SDS011;47967;51.756;10.174;2022-12-18T17:30:13;11.65;;;4.90;;
62010;SDS011;47967;51.756;10.174;2022-12-18T17:34:16;7.55;;;5.15;;
62010;SDS011;47967;51.756;10.174;2022-12-18T17:38:19;6.47;;;3.47;;
62010;SDS011;47967;51.756;10.174;2022-12-18T17:42:23;9.88;;;4.85;;
62010;SDS011;47967;51.756;10.174;2022-12-18T17:46:26;10.95;;;4.55;;
62010;SDS011;47967;51.756;10.174;2022-12-18T17:50:31;9.90;;;5.53;;
62010;SDS011;47967;51.756;10.174;2022-12-18T17:54:34;12.10;;;6.07;;
62010;SDS011;47967;51.756;10.174;2022-12-18T17:58:41;13.50;;;6.35;;
62010;SDS011;47967;51.756;10.174;2022-12-18T18:02:44;11.25;;;4.03;;
62010;SDS011;47967;51.756;10.174;2022-12-18T18:06:47;8.43;;;4.32;;
62010;SDS011;47967;51.756;10.174;2022-12-18T18:10:50;8.05;;;3.72;;
62010;SDS011;47967;51.756;10.174;2022-12-18T18:14:54;12.13;;;5.85;;
62010;SDS011;47967;51.756;10.174;2022-12-18T18:18:57;7.53;;;4.60;;
62010;SDS011;47967;51.756;10.174;2022-12-18T18:23:00;11.10;;;5.25;;
62010;SDS011;47967;51.756;10.174;2022-12-18T18:27:03;7.97;;;4.32;;
62010;SDS011;47967;51.756;10.174;2022-12-18T18:35:11;9.30;;;4.50;;
62010;SDS011;47967;51.756;10.174;2022-12-18T18:39:34;11.32;;;4.88;;
62010;SDS011;47967;51.756;10.174;2022-12-18T18:43:37;11.25;;;4.63;;
62010;SDS011;47967;51.756;10.174;2022-12-18T18:47:41;10.75;;;5.03;;
62010;SDS011;47967;51.756;10.174;2022-12-18T18:51:44;8.85;;;4.28;;
62010;SDS011;47967;51.756;10.174;2022-12-18T18:55:47;10.65;;;5.50;;
62010;SDS011;47967;51.756;10.174;2022-12-18T19:00:10;7.07;;;3.88;;
62010;SDS011;47967;51.756;10.174;2022-12-18T19:04:15;9.70;;;4.55;;
62010;SDS011;47967;51.756;10.174;2022-12-18T19:08:18;11.57;;;5.35;;
62010;SDS011;47967;51.756;10.174;2022-12-18T19:12:21;13.68;;;6.03;;
62010;SDS011;47967;51.756;10.174;2022-12-18T19:16:42;12.35;;;5.78;;
62010;SDS011;47967;51.756;10.174;2022-12-18T19:20:54;10.98;;;5.85;;
62010;SDS011;47967;51.756;10.174;2022-12-18T19:24:58;11.30;;;5.38;;
62010;SDS011;47967;51.756;10.174;2022-12-18T19:29:01;11.10;;;5.43;;
62010;SDS011;47967;51.756;10.174;2022-12-18T19:33:04;14.88;;;6.30;;
62010;SDS011;47967;51.756;10.174;2022-12-18T19:37:28;11.38;;;5.25;;
62010;SDS011;47967;51.756;10.174;2022-12-18T19:41:31;8.50;;;5.00;;
62010;SDS011;47967;51.756;10.174;2022-12-18T19:45:35;10.27;;;4.90;;
62010;SDS011;47967;51.756;10.174;2022-12-18T19:49:38;11.13;;;4.85;;
62010;SDS011;47967;51.756;10.174;2022-12-18T19:53:42;5.90;;;3.65;;
62010;SDS011;47967;51.756;10.174;2022-12-18T19:57:45;6.05;;;3.15;;
62010;SDS011;47967;51.756;10.174;2022-12-18T20:01:47;5.25;;;3.00;;
62010;SDS011;47967;51.756;10.174;2022-12-18T20:05:53;10.95;;;5.03;;
62010;SDS011;47967;51.756;10.174;2022-12-18T20:09:57;9.93;;;4.53;;
62010;SDS011;47967;51.756;10.174;2022-12-18T20:14:09;10.33;;;5.37;;
62010;SDS011;47967;51.756;10.174;2022-12-18T20:18:12;6.53;;;3.60;;
62010;SDS011;47967;51.756;10.174;2022-12-18T20:22:18;9.57;;;4.60;;
62010;SDS011;47967;51.756;10.174;2022-12-18T20:26:22;11.75;;;4.57;;
62010;SDS011;47967;51.756;10.174;2022-12-18T20:30:25;8.52;;;3.60;;
62010;SDS011;47967;51.756;10.174;2022-12-18T20:34:28;12.35;;;4.40;;
62010;SDS011;47967;51.756;10.174;2022-12-18T20:38:31;5.90;;;2.83;;
62010;SDS011;47967;51.756;10.174;2022-12-18T20:42:36;8.50;;;3.95;;
62010;SDS011;47967;51.756;10.174;2022-12-18T20:46:39;7.60;;;3.83;;
62010;SDS011;47967;51.756;10.174;2022-12-18T20:50:41;8.90;;;3.63;;
62010;SDS011;47967;51.756;10.174;2022-12-18T20:54:44;10.10;;;4.43;;
62010;SDS011;47967;51.756;10.174;2022-12-18T20:58:48;7.72;;;3.80;;
62010;SDS011;47967;51.756;10.174;2022-12-18T21:02:55;10.75;;;3.70;;
62010;SDS011;47967;51.756;10.174;2022-12-18T21:06:58;9.00;;;4.50;;
62010;SDS011;47967;51.756;10.174;2022-12-18T21:11:13;11.55;;;3.70;;
62010;SDS011;47967;51.756;10.174;2022-12-18T21:15:33;11.23;;;4.07;;
62010;SDS011;47967;51.756;10.174;2022-12-18T21:19:36;8.45;;;3.92;;
62010;SDS011;47967;51.756;10.174;2022-12-18T21:27:42;7.82;;;3.95;;
62010;SDS011;47967;51.756;10.174;2022-12-18T21:31:46;6.75;;;3.47;;
62010;SDS011;47967;51.756;10.174;2022-12-18T21:35:49;9.40;;;4.50;;
62010;SDS011;47967;51.756;10.174;2022-12-18T21:39:52;7.63;;;3.87;;
62010;SDS011;47967;51.756;10.174;2022-12-18T21:43:54;7.47;;;3.73;;
62010;SDS011;47967;51.756;10.174;2022-12-18T21:48:10;5.82;;;3.22;;
62010;SDS011;47967;51.756;10.174;2022-12-18T21:52:13;8.68;;;4.28;;
62010;SDS011;47967;51.756;10.174;2022-12-18T21:56:15;8.30;;;3.73;;
